sensor_id;sensor_type;location;lat;lon;timestamp;temperature;humidity
1083;DHT22;530;51.448;7.238;2022-09-20T00:00:41;10.90;99.90
1083;DHT22;530;51.448;7.238;2022-09-20T00:03:08;11.00;99.90
1083;DHT22;530;51.448;7.238;2022-09-20T00:05:38;11.00;99.90
1083;DHT22;530;51.448;7.238;2022-09-20T00:08:06;11.10;99.90
1083;DHT22;530;51.448;7.238;2022-09-20T00:10:33;11.20;99.90
1083;DHT22;530;51.448;7.238;2022-09-20T00:13:01;11.10;99.90
1083;DHT22;530;51.448;7.238;2022-09-20T00:15:28;11.20;99.90
1083;DHT22;530;51.448;7.238;2022-09-20T00:17:53;11.10;99.90
1083;DHT22;530;51.448;7.238;2022-09-20T00:20:19;11.10;99.90
1083;DHT22;530;51.448;7.238;2022-09-20T00:22:45;11.10;99.90
1083;DHT22;530;51.448;7.238;2022-09-20T00:25:14;11.00;99.90
1083;DHT22;530;51.448;7.238;2022-09-20T00:27:40;11.00;99.90
1083;DHT22;530;51.448;7.238;2022-09-20T00:30:06;11.00;99.90
1083;DHT22;530;51.448;7.238;2022-09-20T00:32:32;11.00;99.90
1083;DHT22;530;51.448;7.238;2022-09-20T00:34:58;10.90;99.90
1083;DHT22;530;51.448;7.238;2022-09-20T00:37:50;10.90;99.90
1083;DHT22;530;51.448;7.238;2022-09-20T00:40:18;10.80;99.90
1083;DHT22;530;51.448;7.238;2022-09-20T00:42:45;10.70;99.90
1083;DHT22;530;51.448;7.238;2022-09-20T00:48:22;10.70;99.90
1083;DHT22;530;51.448;7.238;2022-09-20T00:50:45;10.70;99.90
1083;DHT22;530;51.448;7.238;2022-09-20T00:55:56;10.80;99.90
1083;DHT22;530;51.448;7.238;2022-09-20T00:58:24;10.80;99.90
1083;DHT22;530;51.448;7.238;2022-09-20T01:00:53;10.90;99.90
1083;DHT22;530;51.448;7.238;2022-09-20T01:03:20;10.90;99.90
1083;DHT22;530;51.448;7.238;2022-09-20T01:05:49;10.90;99.90
1083;DHT22;530;51.448;7.238;2022-09-20T01:08:15;10.80;99.90
1083;DHT22;530;51.448;7.238;2022-09-20T01:10:41;10.90;99.90
1083;DHT22;530;51.448;7.238;2022-09-20T01:13:07;10.90;99.90
1083;DHT22;530;51.448;7.238;2022-09-20T01:15:34;10.90;99.90
1083;DHT22;530;51.448;7.238;2022-09-20T01:18:02;10.90;99.90
1083;DHT22;530;51.448;7.238;2022-09-20T01:20:34;10.90;99.90
1083;DHT22;530;51.448;7.238;2022-09-20T01:29:11;10.90;99.90
1083;DHT22;530;51.448;7.238;2022-09-20T01:31:49;10.80;99.90
1083;DHT22;530;51.448;7.238;2022-09-20T01:36:56;10.80;99.90
1083;DHT22;530;51.448;7.238;2022-09-20T01:42:37;10.80;99.90
1083;DHT22;530;51.448;7.238;2022-09-20T01:45:08;10.80;99.90
1083;DHT22;530;51.448;7.238;2022-09-20T01:47:43;10.90;99.90
1083;DHT22;530;51.448;7.238;2022-09-20T01:50:23;10.90;99.90
1083;DHT22;530;51.448;7.238;2022-09-20T01:56:06;10.80;99.90
1083;DHT22;530;51.448;7.238;2022-09-20T02:07:04;10.70;99.90
1083;DHT22;530;51.448;7.238;2022-09-20T02:21:17;10.80;99.90
1083;DHT22;530;51.448;7.238;2022-09-20T02:26:48;10.80;99.90
1083;DHT22;530;51.448;7.238;2022-09-20T02:42:35;10.80;99.90
1083;DHT22;530;51.448;7.238;2022-09-20T02:45:27;10.80;99.90
1083;DHT22;530;51.448;7.238;2022-09-20T02:48:00;10.80;99.90
1083;DHT22;530;51.448;7.238;2022-09-20T02:53:45;10.80;99.90
1083;DHT22;530;51.448;7.238;2022-09-20T03:01:59;10.70;99.90
1083;DHT22;530;51.448;7.238;2022-09-20T03:13:31;10.70;99.90
1083;DHT22;530;51.448;7.238;2022-09-20T03:18:48;10.70;99.90
1083;DHT22;530;51.448;7.238;2022-09-20T03:21:30;10.60;99.90
1083;DHT22;530;51.448;7.238;2022-09-20T03:27:04;10.60;99.90
1083;DHT22;530;51.448;7.238;2022-09-20T03:34:53;10.60;99.90
1083;DHT22;530;51.448;7.238;2022-09-20T03:38:01;10.60;99.90
1083;DHT22;530;51.448;7.238;2022-09-20T03:40:50;10.60;99.90
1083;DHT22;530;51.448;7.238;2022-09-20T03:46:20;10.60;99.90
1083;DHT22;530;51.448;7.238;2022-09-20T04:00:23;10.60;99.90
1083;DHT22;530;51.448;7.238;2022-09-20T04:18:48;10.40;99.90
1083;DHT22;530;51.448;7.238;2022-09-20T04:21:31;10.40;99.90
1083;DHT22;530;51.448;7.238;2022-09-20T04:24:08;10.40;99.90
1083;DHT22;530;51.448;7.238;2022-09-20T04:26:42;10.50;99.90
1083;DHT22;530;51.448;7.238;2022-09-20T04:30:04;10.50;99.90
1083;DHT22;530;51.448;7.238;2022-09-20T04:32:41;10.50;99.90
1083;DHT22;530;51.448;7.238;2022-09-20T04:35:44;10.50;99.90
1083;DHT22;530;51.448;7.238;2022-09-20T04:38:29;10.60;99.90
1083;DHT22;530;51.448;7.238;2022-09-20T04:49:40;10.90;99.90
1083;DHT22;530;51.448;7.238;2022-09-20T04:55:23;10.90;99.90
1083;DHT22;530;51.448;7.238;2022-09-20T05:06:48;10.90;99.90
1083;DHT22;530;51.448;7.238;2022-09-20T05:20:51;11.00;99.90
1083;DHT22;530;51.448;7.238;2022-09-20T05:26:18;11.10;99.90
1083;DHT22;530;51.448;7.238;2022-09-20T05:29:20;11.10;99.90
1083;DHT22;530;51.448;7.238;2022-09-20T05:32:23;11.10;99.90
1083;DHT22;530;51.448;7.238;2022-09-20T05:35:43;11.10;99.90
1083;DHT22;530;51.448;7.238;2022-09-20T05:37:54;11.10;99.90
1083;DHT22;530;51.448;7.238;2022-09-20T05:40:32;11.20;99.90
1083;DHT22;530;51.448;7.238;2022-09-20T05:43:12;11.20;99.90
1083;DHT22;530;51.448;7.238;2022-09-20T05:48:47;11.20;99.90
1083;DHT22;530;51.448;7.238;2022-09-20T05:51:46;11.20;99.90
1083;DHT22;530;51.448;7.238;2022-09-20T06:00:24;11.40;99.90
1083;DHT22;530;51.448;7.238;2022-09-20T06:06:35;11.40;99.90
1083;DHT22;530;51.448;7.238;2022-09-20T06:17:45;11.60;99.90
1083;DHT22;530;51.448;7.238;2022-09-20T06:23:09;11.60;99.90
1083;DHT22;530;51.448;7.238;2022-09-20T06:25:48;11.60;99.90
1083;DHT22;530;51.448;7.238;2022-09-20T06:28:23;11.60;99.90
1083;DHT22;530;51.448;7.238;2022-09-20T06:30:52;11.60;99.90
1083;DHT22;530;51.448;7.238;2022-09-20T06:33:25;11.60;99.90
1083;DHT22;530;51.448;7.238;2022-09-20T06:42:01;11.70;99.90
1083;DHT22;530;51.448;7.238;2022-09-20T06:44:26;11.70;99.90
1083;DHT22;530;51.448;7.238;2022-09-20T06:46:52;11.80;99.90
1083;DHT22;530;51.448;7.238;2022-09-20T06:49:19;11.90;99.90
1083;DHT22;530;51.448;7.238;2022-09-20T06:51:45;11.90;99.90
1083;DHT22;530;51.448;7.238;2022-09-20T06:54:17;12.00;99.90
1083;DHT22;530;51.448;7.238;2022-09-20T06:56:43;12.10;99.90
1083;DHT22;530;51.448;7.238;2022-09-20T06:59:11;12.10;99.90
1083;DHT22;530;51.448;7.238;2022-09-20T07:01:37;12.20;99.90
1083;DHT22;530;51.448;7.238;2022-09-20T07:04:04;12.20;99.90
1083;DHT22;530;51.448;7.238;2022-09-20T07:06:31;12.20;99.90
1083;DHT22;530;51.448;7.238;2022-09-20T07:08:56;12.20;99.90
1083;DHT22;530;51.448;7.238;2022-09-20T07:11:22;12.20;99.90
1083;DHT22;530;51.448;7.238;2022-09-20T07:13:53;12.10;99.90
1083;DHT22;530;51.448;7.238;2022-09-20T07:16:22;12.00;99.90
1083;DHT22;530;51.448;7.238;2022-09-20T07:18:48;12.00;99.90
1083;DHT22;530;51.448;7.238;2022-09-20T07:21:16;12.10;99.90
1083;DHT22;530;51.448;7.238;2022-09-20T07:23:42;12.10;99.90
1083;DHT22;530;51.448;7.238;2022-09-20T07:26:36;12.10;99.90
1083;DHT22;530;51.448;7.238;2022-09-20T07:29:03;12.10;99.90
1083;DHT22;530;51.448;7.238;2022-09-20T07:31:29;12.10;99.90
1083;DHT22;530;51.448;7.238;2022-09-20T07:33:55;12.10;99.90
1083;DHT22;530;51.448;7.238;2022-09-20T07:36:21;12.20;99.90
1083;DHT22;530;51.448;7.238;2022-09-20T07:38:51;12.30;99.90
1083;DHT22;530;51.448;7.238;2022-09-20T07:41:18;12.30;99.90
1083;DHT22;530;51.448;7.238;2022-09-20T07:43:45;12.40;99.90
1083;DHT22;530;51.448;7.238;2022-09-20T07:46:11;12.30;99.90
1083;DHT22;530;51.448;7.238;2022-09-20T07:48:38;12.40;99.90
1083;DHT22;530;51.448;7.238;2022-09-20T07:53:32;12.40;99.90
1083;DHT22;530;51.448;7.238;2022-09-20T07:56:04;12.60;99.90
1083;DHT22;530;51.448;7.238;2022-09-20T07:58:31;12.80;99.90
1083;DHT22;530;51.448;7.238;2022-09-20T08:01:00;12.90;99.90
1083;DHT22;530;51.448;7.238;2022-09-20T08:03:29;13.20;99.90
1083;DHT22;530;51.448;7.238;2022-09-20T08:06:03;13.40;99.90
1083;DHT22;530;51.448;7.238;2022-09-20T08:08:38;13.70;99.90
1083;DHT22;530;51.448;7.238;2022-09-20T08:11:10;13.70;99.90
1083;DHT22;530;51.448;7.238;2022-09-20T08:13:48;13.60;99.90
1083;DHT22;530;51.448;7.238;2022-09-20T08:16:15;13.60;99.90
1083;DHT22;530;51.448;7.238;2022-09-20T08:19:00;13.60;99.90
1083;DHT22;530;51.448;7.238;2022-09-20T08:21:29;13.60;99.90
1083;DHT22;530;51.448;7.238;2022-09-20T08:23:59;13.60;99.90
1083;DHT22;530;51.448;7.238;2022-09-20T08:26:25;13.60;99.90
1083;DHT22;530;51.448;7.238;2022-09-20T08:28:53;13.70;99.90
1083;DHT22;530;51.448;7.238;2022-09-20T08:31:21;13.60;99.90
1083;DHT22;530;51.448;7.238;2022-09-20T08:33:49;13.60;99.90
1083;DHT22;530;51.448;7.238;2022-09-20T08:36:22;13.60;99.90
1083;DHT22;530;51.448;7.238;2022-09-20T08:38:49;13.60;99.90
1083;DHT22;530;51.448;7.238;2022-09-20T08:46:32;13.60;99.90
1083;DHT22;530;51.448;7.238;2022-09-20T08:49:03;13.60;99.90
1083;DHT22;530;51.448;7.238;2022-09-20T08:51:32;13.60;99.90
1083;DHT22;530;51.448;7.238;2022-09-20T08:53:59;13.60;99.90
1083;DHT22;530;51.448;7.238;2022-09-20T08:56:28;13.70;99.90
1083;DHT22;530;51.448;7.238;2022-09-20T08:58:55;13.70;99.90
1083;DHT22;530;51.448;7.238;2022-09-20T09:01:25;13.70;99.90
1083;DHT22;530;51.448;7.238;2022-09-20T09:04:22;13.60;99.90
1083;DHT22;530;51.448;7.238;2022-09-20T09:06:49;13.60;99.90
1083;DHT22;530;51.448;7.238;2022-09-20T09:09:26;13.60;99.90
1083;DHT22;530;51.448;7.238;2022-09-20T09:11:54;13.60;99.90
1083;DHT22;530;51.448;7.238;2022-09-20T09:17:12;13.60;99.90
1083;DHT22;530;51.448;7.238;2022-09-20T09:20:25;13.60;99.90
1083;DHT22;530;51.448;7.238;2022-09-20T09:22:41;13.70;99.90
1083;DHT22;530;51.448;7.238;2022-09-20T09:27:54;13.80;99.90
1083;DHT22;530;51.448;7.238;2022-09-20T09:30:29;13.90;99.90
1083;DHT22;530;51.448;7.238;2022-09-20T09:38:33;14.50;99.90
1083;DHT22;530;51.448;7.238;2022-09-20T09:41:01;14.60;99.90
1083;DHT22;530;51.448;7.238;2022-09-20T09:43:32;14.70;99.90
1083;DHT22;530;51.448;7.238;2022-09-20T09:46:22;14.70;99.90
1083;DHT22;530;51.448;7.238;2022-09-20T09:51:32;14.80;99.90
1083;DHT22;530;51.448;7.238;2022-09-20T09:53:58;14.80;99.90
1083;DHT22;530;51.448;7.238;2022-09-20T09:59:23;14.70;99.90
1083;DHT22;530;51.448;7.238;2022-09-20T10:04:51;14.50;99.90
1083;DHT22;530;51.448;7.238;2022-09-20T10:07:45;14.40;99.90
1083;DHT22;530;51.448;7.238;2022-09-20T10:10:33;14.40;99.90
1083;DHT22;530;51.448;7.238;2022-09-20T10:16:04;14.20;99.90
1083;DHT22;530;51.448;7.238;2022-09-20T10:18:51;14.20;99.90
1083;DHT22;530;51.448;7.238;2022-09-20T10:24:23;14.20;99.90
1083;DHT22;530;51.448;7.238;2022-09-20T10:27:11;14.30;99.90
1083;DHT22;530;51.448;7.238;2022-09-20T10:33:08;14.40;99.90
1083;DHT22;530;51.448;7.238;2022-09-20T10:38:57;14.40;99.90
1083;DHT22;530;51.448;7.238;2022-09-20T10:49:55;14.30;99.90
1083;DHT22;530;51.448;7.238;2022-09-20T10:58:26;14.30;99.90
1083;DHT22;530;51.448;7.238;2022-09-20T11:00:59;14.40;99.90
1083;DHT22;530;51.448;7.238;2022-09-20T11:06:50;14.60;99.90
1083;DHT22;530;51.448;7.238;2022-09-20T11:09:23;14.90;99.90
1083;DHT22;530;51.448;7.238;2022-09-20T11:14:34;15.20;99.90
1083;DHT22;530;51.448;7.238;2022-09-20T11:17:17;15.20;99.90
1083;DHT22;530;51.448;7.238;2022-09-20T11:22:39;15.30;99.90
1083;DHT22;530;51.448;7.238;2022-09-20T11:25:29;15.30;99.90
1083;DHT22;530;51.448;7.238;2022-09-20T11:28:08;15.40;99.90
1083;DHT22;530;51.448;7.238;2022-09-20T11:30:49;15.40;99.90
1083;DHT22;530;51.448;7.238;2022-09-20T11:33:22;15.40;99.90
1083;DHT22;530;51.448;7.238;2022-09-20T11:35:52;15.40;99.90
1083;DHT22;530;51.448;7.238;2022-09-20T11:41:10;15.40;99.90
1083;DHT22;530;51.448;7.238;2022-09-20T11:43:39;15.50;99.90
1083;DHT22;530;51.448;7.238;2022-09-20T11:46:10;15.60;99.90
1083;DHT22;530;51.448;7.238;2022-09-20T11:48:52;15.50;99.90
1083;DHT22;530;51.448;7.238;2022-09-20T11:54:49;15.40;99.90
1083;DHT22;530;51.448;7.238;2022-09-20T11:57:12;15.40;99.90
1083;DHT22;530;51.448;7.238;2022-09-20T11:59:41;15.50;99.90
1083;DHT22;530;51.448;7.238;2022-09-20T12:02:41;15.50;99.90
1083;DHT22;530;51.448;7.238;2022-09-20T12:07:55;15.40;99.90
1083;DHT22;530;51.448;7.238;2022-09-20T12:10:26;15.40;99.90
1083;DHT22;530;51.448;7.238;2022-09-20T12:13:03;15.40;99.90
1083;DHT22;530;51.448;7.238;2022-09-20T12:28:51;15.20;99.90
1083;DHT22;530;51.448;7.238;2022-09-20T12:39:39;15.20;99.90
1083;DHT22;530;51.448;7.238;2022-09-20T12:47:20;15.00;99.90
1083;DHT22;530;51.448;7.238;2022-09-20T13:03:22;15.30;99.90
1083;DHT22;530;51.448;7.238;2022-09-20T13:05:56;15.40;99.90
1083;DHT22;530;51.448;7.238;2022-09-20T13:14:13;15.60;99.90
1083;DHT22;530;51.448;7.238;2022-09-20T13:16:46;15.40;99.90
1083;DHT22;530;51.448;7.238;2022-09-20T13:19:23;15.50;99.90
1083;DHT22;530;51.448;7.238;2022-09-20T13:24:47;15.50;99.90
1083;DHT22;530;51.448;7.238;2022-09-20T13:27:28;15.60;99.90
1083;DHT22;530;51.448;7.238;2022-09-20T13:30:08;15.70;99.90
1083;DHT22;530;51.448;7.238;2022-09-20T13:32:34;15.90;99.90
1083;DHT22;530;51.448;7.238;2022-09-20T13:35:20;16.00;99.90
1083;DHT22;530;51.448;7.238;2022-09-20T13:37:54;16.30;99.90
1083;DHT22;530;51.448;7.238;2022-09-20T13:40:30;16.40;99.90
1083;DHT22;530;51.448;7.238;2022-09-20T13:43:11;16.50;99.90
1083;DHT22;530;51.448;7.238;2022-09-20T13:45:41;16.60;99.90
1083;DHT22;530;51.448;7.238;2022-09-20T13:48:08;16.60;99.90
1083;DHT22;530;51.448;7.238;2022-09-20T13:50:34;16.50;99.90
1083;DHT22;530;51.448;7.238;2022-09-20T13:53:13;16.40;99.90
1083;DHT22;530;51.448;7.238;2022-09-20T13:55:41;16.20;99.90
1083;DHT22;530;51.448;7.238;2022-09-20T13:58:17;16.00;99.90
1083;DHT22;530;51.448;7.238;2022-09-20T14:00:49;15.90;99.90
1083;DHT22;530;51.448;7.238;2022-09-20T14:03:17;15.80;99.90
1083;DHT22;530;51.448;7.238;2022-09-20T14:05:54;15.70;99.90
1083;DHT22;530;51.448;7.238;2022-09-20T14:08:32;15.60;99.90
1083;DHT22;530;51.448;7.238;2022-09-20T14:11:26;15.60;99.90
1083;DHT22;530;51.448;7.238;2022-09-20T14:13:58;15.50;99.90
1083;DHT22;530;51.448;7.238;2022-09-20T14:16:30;15.50;99.90
1083;DHT22;530;51.448;7.238;2022-09-20T14:18:58;15.40;99.90
1083;DHT22;530;51.448;7.238;2022-09-20T14:21:26;15.40;99.90
1083;DHT22;530;51.448;7.238;2022-09-20T14:24:20;15.30;99.90
1083;DHT22;530;51.448;7.238;2022-09-20T14:37:24;15.20;99.90
1083;DHT22;530;51.448;7.238;2022-09-20T14:39:59;15.20;99.90
1083;DHT22;530;51.448;7.238;2022-09-20T14:42:33;15.20;99.90
1083;DHT22;530;51.448;7.238;2022-09-20T14:45:01;15.20;99.90
1083;DHT22;530;51.448;7.238;2022-09-20T14:47:48;15.20;99.90
1083;DHT22;530;51.448;7.238;2022-09-20T14:50:34;15.30;99.90
1083;DHT22;530;51.448;7.238;2022-09-20T14:58:22;15.50;99.90
1083;DHT22;530;51.448;7.238;2022-09-20T15:03:29;15.40;99.90
1083;DHT22;530;51.448;7.238;2022-09-20T15:05:56;15.40;99.90
1083;DHT22;530;51.448;7.238;2022-09-20T15:08:22;15.50;99.90
1083;DHT22;530;51.448;7.238;2022-09-20T15:10:48;15.40;99.90
1083;DHT22;530;51.448;7.238;2022-09-20T15:13:14;15.40;99.90
1083;DHT22;530;51.448;7.238;2022-09-20T15:15:41;15.40;99.90
1083;DHT22;530;51.448;7.238;2022-09-20T15:18:22;15.50;99.90
1083;DHT22;530;51.448;7.238;2022-09-20T15:20:51;15.40;99.90
1083;DHT22;530;51.448;7.238;2022-09-20T15:23:18;15.40;99.90
1083;DHT22;530;51.448;7.238;2022-09-20T15:25:44;15.30;99.90
1083;DHT22;530;51.448;7.238;2022-09-20T15:28:13;15.30;99.90
1083;DHT22;530;51.448;7.238;2022-09-20T15:30:46;15.40;99.90
1083;DHT22;530;51.448;7.238;2022-09-20T15:33:13;15.40;99.90
1083;DHT22;530;51.448;7.238;2022-09-20T15:35:40;15.40;99.90
1083;DHT22;530;51.448;7.238;2022-09-20T15:38:06;15.40;99.90
1083;DHT22;530;51.448;7.238;2022-09-20T15:40:34;15.40;99.90
1083;DHT22;530;51.448;7.238;2022-09-20T15:43:00;15.40;99.90
1083;DHT22;530;51.448;7.238;2022-09-20T15:45:26;15.30;99.90
1083;DHT22;530;51.448;7.238;2022-09-20T15:47:53;15.40;99.90
1083;DHT22;530;51.448;7.238;2022-09-20T15:50:22;15.30;99.90
1083;DHT22;530;51.448;7.238;2022-09-20T15:52:49;15.40;99.90
1083;DHT22;530;51.448;7.238;2022-09-20T15:55:19;15.30;99.90
1083;DHT22;530;51.448;7.238;2022-09-20T15:57:46;15.30;99.90
1083;DHT22;530;51.448;7.238;2022-09-20T16:00:14;15.20;99.90
1083;DHT22;530;51.448;7.238;2022-09-20T16:02:43;15.10;99.90
1083;DHT22;530;51.448;7.238;2022-09-20T16:05:09;15.00;99.90
1083;DHT22;530;51.448;7.238;2022-09-20T16:07:35;15.00;99.90
1083;DHT22;530;51.448;7.238;2022-09-20T16:10:01;14.90;99.90
1083;DHT22;530;51.448;7.238;2022-09-20T16:12:27;14.90;99.90
1083;DHT22;530;51.448;7.238;2022-09-20T16:14:52;14.90;99.90
1083;DHT22;530;51.448;7.238;2022-09-20T16:17:18;14.90;99.90
1083;DHT22;530;51.448;7.238;2022-09-20T16:20:04;14.90;99.90
1083;DHT22;530;51.448;7.238;2022-09-20T16:22:30;14.80;99.90
1083;DHT22;530;51.448;7.238;2022-09-20T16:24:58;14.90;99.90
1083;DHT22;530;51.448;7.238;2022-09-20T16:27:26;14.80;99.90
1083;DHT22;530;51.448;7.238;2022-09-20T16:29:51;14.80;99.90
1083;DHT22;530;51.448;7.238;2022-09-20T16:32:17;14.70;99.90
1083;DHT22;530;51.448;7.238;2022-09-20T16:34:43;14.70;99.90
1083;DHT22;530;51.448;7.238;2022-09-20T16:37:10;14.60;99.90
1083;DHT22;530;51.448;7.238;2022-09-20T16:39:38;14.60;99.90
1083;DHT22;530;51.448;7.238;2022-09-20T16:42:05;14.60;99.90
1083;DHT22;530;51.448;7.238;2022-09-20T16:44:37;14.50;99.90
1083;DHT22;530;51.448;7.238;2022-09-20T16:47:11;14.50;99.90
1083;DHT22;530;51.448;7.238;2022-09-20T16:49:43;14.40;99.90
1083;DHT22;530;51.448;7.238;2022-09-20T16:52:09;14.50;99.90
1083;DHT22;530;51.448;7.238;2022-09-20T16:54:35;14.40;99.90
1083;DHT22;530;51.448;7.238;2022-09-20T16:57:01;14.40;99.90
1083;DHT22;530;51.448;7.238;2022-09-20T16:59:27;14.40;99.90
1083;DHT22;530;51.448;7.238;2022-09-20T17:01:53;14.40;99.90
1083;DHT22;530;51.448;7.238;2022-09-20T17:04:19;14.30;99.90
1083;DHT22;530;51.448;7.238;2022-09-20T17:06:46;14.30;99.90
1083;DHT22;530;51.448;7.238;2022-09-20T17:09:13;14.30;99.90
1083;DHT22;530;51.448;7.238;2022-09-20T17:11:41;14.20;99.90
1083;DHT22;530;51.448;7.238;2022-09-20T17:14:10;14.20;99.90
1083;DHT22;530;51.448;7.238;2022-09-20T17:16:37;14.10;99.90
1083;DHT22;530;51.448;7.238;2022-09-20T17:19:08;14.10;99.90
1083;DHT22;530;51.448;7.238;2022-09-20T17:21:40;14.10;99.90
1083;DHT22;530;51.448;7.238;2022-09-20T17:24:09;14.00;99.90
1083;DHT22;530;51.448;7.238;2022-09-20T17:26:37;13.90;99.90
1083;DHT22;530;51.448;7.238;2022-09-20T17:29:06;13.90;99.90
1083;DHT22;530;51.448;7.238;2022-09-20T17:31:36;13.80;99.90
1083;DHT22;530;51.448;7.238;2022-09-20T17:34:04;13.70;99.90
1083;DHT22;530;51.448;7.238;2022-09-20T17:36:34;13.60;99.90
1083;DHT22;530;51.448;7.238;2022-09-20T17:39:04;13.60;99.90
1083;DHT22;530;51.448;7.238;2022-09-20T17:41:30;13.60;99.90
1083;DHT22;530;51.448;7.238;2022-09-20T17:43:58;13.50;99.90
1083;DHT22;530;51.448;7.238;2022-09-20T17:46:26;13.50;99.90
1083;DHT22;530;51.448;7.238;2022-09-20T17:49:00;13.40;99.90
1083;DHT22;530;51.448;7.238;2022-09-20T17:51:29;13.40;99.90
1083;DHT22;530;51.448;7.238;2022-09-20T17:53:55;13.40;99.90
1083;DHT22;530;51.448;7.238;2022-09-20T17:56:22;13.30;99.90
1083;DHT22;530;51.448;7.238;2022-09-20T17:58:49;13.30;99.90
1083;DHT22;530;51.448;7.238;2022-09-20T18:01:17;13.30;99.90
1083;DHT22;530;51.448;7.238;2022-09-20T18:03:44;13.30;99.90
1083;DHT22;530;51.448;7.238;2022-09-20T18:06:19;13.20;99.90
1083;DHT22;530;51.448;7.238;2022-09-20T18:08:56;13.20;99.90
1083;DHT22;530;51.448;7.238;2022-09-20T18:11:27;13.20;99.90
1083;DHT22;530;51.448;7.238;2022-09-20T18:13:53;13.20;99.90
1083;DHT22;530;51.448;7.238;2022-09-20T18:16:19;13.10;99.90
1083;DHT22;530;51.448;7.238;2022-09-20T18:18:45;13.10;99.90
1083;DHT22;530;51.448;7.238;2022-09-20T18:21:22;13.10;99.90
1083;DHT22;530;51.448;7.238;2022-09-20T18:23:49;13.00;99.90
1083;DHT22;530;51.448;7.238;2022-09-20T18:26:20;12.90;99.90
1083;DHT22;530;51.448;7.238;2022-09-20T18:28:56;12.80;99.90
1083;DHT22;530;51.448;7.238;2022-09-20T18:31:24;12.80;99.90
1083;DHT22;530;51.448;7.238;2022-09-20T18:33:57;12.90;99.90
1083;DHT22;530;51.448;7.238;2022-09-20T18:36:24;12.80;99.90
1083;DHT22;530;51.448;7.238;2022-09-20T18:38:52;12.70;99.90
1083;DHT22;530;51.448;7.238;2022-09-20T18:41:29;12.60;99.90
1083;DHT22;530;51.448;7.238;2022-09-20T18:43:58;12.60;99.90
1083;DHT22;530;51.448;7.238;2022-09-20T18:46:25;12.50;99.90
1083;DHT22;530;51.448;7.238;2022-09-20T18:48:55;12.50;99.90
1083;DHT22;530;51.448;7.238;2022-09-20T18:51:22;12.50;99.90
1083;DHT22;530;51.448;7.238;2022-09-20T18:53:49;12.50;99.90
1083;DHT22;530;51.448;7.238;2022-09-20T18:56:28;12.50;99.90
1083;DHT22;530;51.448;7.238;2022-09-20T19:02:07;12.30;99.90
1083;DHT22;530;51.448;7.238;2022-09-20T19:04:50;12.20;99.90
1083;DHT22;530;51.448;7.238;2022-09-20T19:12:25;12.10;99.90
1083;DHT22;530;51.448;7.238;2022-09-20T19:17:44;12.00;99.90
1083;DHT22;530;51.448;7.238;2022-09-20T19:28:47;12.00;99.90
1083;DHT22;530;51.448;7.238;2022-09-20T19:31:30;12.00;99.90
1083;DHT22;530;51.448;7.238;2022-09-20T19:33:58;12.00;99.90
1083;DHT22;530;51.448;7.238;2022-09-20T19:36:38;12.00;99.90
1083;DHT22;530;51.448;7.238;2022-09-20T19:39:18;12.00;99.90
1083;DHT22;530;51.448;7.238;2022-09-20T19:47:16;11.90;99.90
1083;DHT22;530;51.448;7.238;2022-09-20T19:52:47;11.80;99.90
1083;DHT22;530;51.448;7.238;2022-09-20T19:55:14;11.80;99.90
1083;DHT22;530;51.448;7.238;2022-09-20T19:57:45;11.70;99.90
1083;DHT22;530;51.448;7.238;2022-09-20T20:00:16;11.80;99.90
1083;DHT22;530;51.448;7.238;2022-09-20T20:02:43;11.80;99.90
1083;DHT22;530;51.448;7.238;2022-09-20T20:05:17;11.70;99.90
1083;DHT22;530;51.448;7.238;2022-09-20T20:13:49;11.50;99.90
1083;DHT22;530;51.448;7.238;2022-09-20T20:16:56;11.50;99.90
1083;DHT22;530;51.448;7.238;2022-09-20T20:20:35;11.40;99.90
1083;DHT22;530;51.448;7.238;2022-09-20T20:27:51;11.30;99.90
1083;DHT22;530;51.448;7.238;2022-09-20T20:30:16;11.30;99.90
1083;DHT22;530;51.448;7.238;2022-09-20T20:32:44;11.20;99.90
1083;DHT22;530;51.448;7.238;2022-09-20T20:35:10;11.20;99.90
1083;DHT22;530;51.448;7.238;2022-09-20T20:37:37;11.20;99.90
1083;DHT22;530;51.448;7.238;2022-09-20T20:40:04;11.10;99.90
1083;DHT22;530;51.448;7.238;2022-09-20T20:42:31;11.00;99.90
1083;DHT22;530;51.448;7.238;2022-09-20T20:44:57;11.10;99.90
1083;DHT22;530;51.448;7.238;2022-09-20T20:47:23;11.00;99.90
1083;DHT22;530;51.448;7.238;2022-09-20T20:49:48;10.90;99.90
1083;DHT22;530;51.448;7.238;2022-09-20T20:52:17;10.90;99.90
1083;DHT22;530;51.448;7.238;2022-09-20T20:54:43;10.90;99.90
1083;DHT22;530;51.448;7.238;2022-09-20T20:57:09;10.80;99.90
1083;DHT22;530;51.448;7.238;2022-09-20T20:59:35;10.70;99.90
1083;DHT22;530;51.448;7.238;2022-09-20T21:02:00;10.70;99.90
1083;DHT22;530;51.448;7.238;2022-09-20T21:04:26;10.60;99.90
1083;DHT22;530;51.448;7.238;2022-09-20T21:06:53;10.50;99.90
1083;DHT22;530;51.448;7.238;2022-09-20T21:09:18;10.50;99.90
1083;DHT22;530;51.448;7.238;2022-09-20T21:11:44;10.50;99.90
1083;DHT22;530;51.448;7.238;2022-09-20T21:14:12;10.40;99.90
1083;DHT22;530;51.448;7.238;2022-09-20T21:16:41;10.30;99.90
1083;DHT22;530;51.448;7.238;2022-09-20T21:19:09;10.30;99.90
1083;DHT22;530;51.448;7.238;2022-09-20T21:21:36;10.30;99.90
1083;DHT22;530;51.448;7.238;2022-09-20T21:24:08;10.20;99.90
1083;DHT22;530;51.448;7.238;2022-09-20T21:26:35;10.20;99.90
1083;DHT22;530;51.448;7.238;2022-09-20T21:29:11;10.20;99.90
1083;DHT22;530;51.448;7.238;2022-09-20T21:31:39;10.20;99.90
1083;DHT22;530;51.448;7.238;2022-09-20T21:34:06;10.10;99.90
1083;DHT22;530;51.448;7.238;2022-09-20T21:36:33;10.10;99.90
1083;DHT22;530;51.448;7.238;2022-09-20T21:39:00;10.10;99.90
1083;DHT22;530;51.448;7.238;2022-09-20T21:41:27;10.10;99.90
1083;DHT22;530;51.448;7.238;2022-09-20T21:43:58;10.10;99.90
1083;DHT22;530;51.448;7.238;2022-09-20T21:46:30;10.10;99.90
1083;DHT22;530;51.448;7.238;2022-09-20T21:48:58;10.10;99.90
1083;DHT22;530;51.448;7.238;2022-09-20T21:51:25;10.10;99.90
1083;DHT22;530;51.448;7.238;2022-09-20T21:53:55;10.20;99.90
1083;DHT22;530;51.448;7.238;2022-09-20T21:56:22;10.20;99.90
1083;DHT22;530;51.448;7.238;2022-09-20T21:58:49;10.30;99.90
1083;DHT22;530;51.448;7.238;2022-09-20T22:01:17;10.30;99.90
1083;DHT22;530;51.448;7.238;2022-09-20T22:03:49;10.30;99.90
1083;DHT22;530;51.448;7.238;2022-09-20T22:06:20;10.20;99.90
1083;DHT22;530;51.448;7.238;2022-09-20T22:08:51;10.10;99.90
1083;DHT22;530;51.448;7.238;2022-09-20T22:11:18;10.10;99.90
1083;DHT22;530;51.448;7.238;2022-09-20T22:13:46;10.00;99.90
1083;DHT22;530;51.448;7.238;2022-09-20T22:16:20;10.10;99.90
1083;DHT22;530;51.448;7.238;2022-09-20T22:18:46;10.00;99.90
1083;DHT22;530;51.448;7.238;2022-09-20T22:21:21;10.00;99.90
1083;DHT22;530;51.448;7.238;2022-09-20T22:23:53;10.00;99.90
1083;DHT22;530;51.448;7.238;2022-09-20T22:26:22;10.00;99.90
1083;DHT22;530;51.448;7.238;2022-09-20T22:28:47;10.00;99.90
1083;DHT22;530;51.448;7.238;2022-09-20T22:31:25;10.00;99.90
1083;DHT22;530;51.448;7.238;2022-09-20T22:33:52;10.10;99.90
1083;DHT22;530;51.448;7.238;2022-09-20T22:36:21;9.90;99.90
1083;DHT22;530;51.448;7.238;2022-09-20T22:38:47;9.90;99.90
1083;DHT22;530;51.448;7.238;2022-09-20T22:41:14;9.80;99.90
1083;DHT22;530;51.448;7.238;2022-09-20T22:43:41;9.80;99.90
1083;DHT22;530;51.448;7.238;2022-09-20T22:46:13;9.70;99.90